sensor_id;sensor_type;location;lat;lon;timestamp;temperature;humidity
22974;DHT22;11653;50.848;4.584;2022-10-16T00:01:46;14.90;99.90
22974;DHT22;11653;50.848;4.584;2022-10-16T00:04:12;14.80;99.90
22974;DHT22;11653;50.848;4.584;2022-10-16T00:06:38;14.80;99.90
22974;DHT22;11653;50.848;4.584;2022-10-16T00:09:04;14.70;99.90
22974;DHT22;11653;50.848;4.584;2022-10-16T00:11:32;14.70;99.90
22974;DHT22;11653;50.848;4.584;2022-10-16T00:14:00;14.80;99.90
22974;DHT22;11653;50.848;4.584;2022-10-16T00:16:26;14.80;99.90
22974;DHT22;11653;50.848;4.584;2022-10-16T00:18:52;14.80;99.90
22974;DHT22;11653;50.848;4.584;2022-10-16T00:21:20;14.70;99.90
22974;DHT22;11653;50.848;4.584;2022-10-16T00:23:46;14.70;99.90
22974;DHT22;11653;50.848;4.584;2022-10-16T00:26:15;14.70;99.90
22974;DHT22;11653;50.848;4.584;2022-10-16T00:28:41;14.60;99.90
22974;DHT22;11653;50.848;4.584;2022-10-16T00:31:09;14.70;99.90
22974;DHT22;11653;50.848;4.584;2022-10-16T00:33:37;14.70;99.90
22974;DHT22;11653;50.848;4.584;2022-10-16T00:36:04;14.70;99.90
22974;DHT22;11653;50.848;4.584;2022-10-16T00:38:30;14.70;99.90
22974;DHT22;11653;50.848;4.584;2022-10-16T00:40:56;14.60;99.90
22974;DHT22;11653;50.848;4.584;2022-10-16T00:46:41;14.60;99.90
22974;DHT22;11653;50.848;4.584;2022-10-16T00:49:10;14.60;99.90
22974;DHT22;11653;50.848;4.584;2022-10-16T00:51:55;14.60;99.90
22974;DHT22;11653;50.848;4.584;2022-10-16T00:54:23;14.60;99.90
22974;DHT22;11653;50.848;4.584;2022-10-16T00:56:50;14.60;99.90
22974;DHT22;11653;50.848;4.584;2022-10-16T00:59:26;14.50;99.90
22974;DHT22;11653;50.848;4.584;2022-10-16T01:01:52;14.60;99.90
22974;DHT22;11653;50.848;4.584;2022-10-16T01:04:18;14.60;99.90
22974;DHT22;11653;50.848;4.584;2022-10-16T01:06:54;14.50;99.90
22974;DHT22;11653;50.848;4.584;2022-10-16T01:09:24;14.50;99.90
22974;DHT22;11653;50.848;4.584;2022-10-16T01:23:05;14.40;99.90
22974;DHT22;11653;50.848;4.584;2022-10-16T01:26:06;14.30;99.90
22974;DHT22;11653;50.848;4.584;2022-10-16T01:28:57;14.30;99.90
22974;DHT22;11653;50.848;4.584;2022-10-16T01:31:27;14.30;99.90
22974;DHT22;11653;50.848;4.584;2022-10-16T01:34:52;14.20;99.90
22974;DHT22;11653;50.848;4.584;2022-10-16T01:37:02;14.30;99.90
22974;DHT22;11653;50.848;4.584;2022-10-16T01:39:31;14.30;99.90
22974;DHT22;11653;50.848;4.584;2022-10-16T01:42:03;14.20;99.90
22974;DHT22;11653;50.848;4.584;2022-10-16T01:44:32;14.30;99.90
22974;DHT22;11653;50.848;4.584;2022-10-16T01:46:59;14.20;99.90
22974;DHT22;11653;50.848;4.584;2022-10-16T01:49:29;14.30;99.90
22974;DHT22;11653;50.848;4.584;2022-10-16T01:51:57;14.30;99.90
22974;DHT22;11653;50.848;4.584;2022-10-16T01:54:26;14.20;99.90
22974;DHT22;11653;50.848;4.584;2022-10-16T01:56:54;14.30;99.90
22974;DHT22;11653;50.848;4.584;2022-10-16T01:59:23;14.30;99.90
22974;DHT22;11653;50.848;4.584;2022-10-16T02:01:55;14.30;99.90
22974;DHT22;11653;50.848;4.584;2022-10-16T02:04:43;14.30;99.90
22974;DHT22;11653;50.848;4.584;2022-10-16T02:07:10;14.30;99.90
22974;DHT22;11653;50.848;4.584;2022-10-16T02:09:36;14.20;99.90
22974;DHT22;11653;50.848;4.584;2022-10-16T02:12:12;14.20;99.90
22974;DHT22;11653;50.848;4.584;2022-10-16T02:14:39;14.20;99.90
22974;DHT22;11653;50.848;4.584;2022-10-16T02:17:14;14.20;99.90
22974;DHT22;11653;50.848;4.584;2022-10-16T02:19:40;14.20;99.90
22974;DHT22;11653;50.848;4.584;2022-10-16T02:22:09;14.10;99.90
22974;DHT22;11653;50.848;4.584;2022-10-16T02:24:39;14.10;99.90
22974;DHT22;11653;50.848;4.584;2022-10-16T02:27:11;14.10;99.90
22974;DHT22;11653;50.848;4.584;2022-10-16T02:29:42;14.20;99.90
22974;DHT22;11653;50.848;4.584;2022-10-16T02:32:12;14.20;99.90
22974;DHT22;11653;50.848;4.584;2022-10-16T02:34:39;14.20;99.90
22974;DHT22;11653;50.848;4.584;2022-10-16T02:37:06;14.10;99.90
22974;DHT22;11653;50.848;4.584;2022-10-16T02:39:33;14.20;99.90
22974;DHT22;11653;50.848;4.584;2022-10-16T02:41:59;14.20;99.90
22974;DHT22;11653;50.848;4.584;2022-10-16T02:44:24;14.10;99.90
22974;DHT22;11653;50.848;4.584;2022-10-16T02:46:50;14.20;99.90
22974;DHT22;11653;50.848;4.584;2022-10-16T02:49:16;14.10;99.90
22974;DHT22;11653;50.848;4.584;2022-10-16T02:51:42;14.20;99.90
22974;DHT22;11653;50.848;4.584;2022-10-16T02:54:07;14.10;99.90
22974;DHT22;11653;50.848;4.584;2022-10-16T02:56:33;14.10;99.90
22974;DHT22;11653;50.848;4.584;2022-10-16T02:58:59;14.10;99.90
22974;DHT22;11653;50.848;4.584;2022-10-16T03:01:24;14.10;99.90
22974;DHT22;11653;50.848;4.584;2022-10-16T03:03:50;14.10;99.90
22974;DHT22;11653;50.848;4.584;2022-10-16T03:06:16;14.00;99.90
22974;DHT22;11653;50.848;4.584;2022-10-16T03:08:41;14.00;99.90
22974;DHT22;11653;50.848;4.584;2022-10-16T03:11:07;14.00;99.90
22974;DHT22;11653;50.848;4.584;2022-10-16T03:13:33;14.00;99.90
22974;DHT22;11653;50.848;4.584;2022-10-16T03:15:59;14.00;99.90
22974;DHT22;11653;50.848;4.584;2022-10-16T03:18:24;14.00;99.90
22974;DHT22;11653;50.848;4.584;2022-10-16T03:20:50;14.00;99.90
22974;DHT22;11653;50.848;4.584;2022-10-16T03:23:16;14.00;99.90
22974;DHT22;11653;50.848;4.584;2022-10-16T03:25:41;14.00;99.90
22974;DHT22;11653;50.848;4.584;2022-10-16T03:28:07;14.00;99.90
22974;DHT22;11653;50.848;4.584;2022-10-16T03:30:33;14.00;99.90
22974;DHT22;11653;50.848;4.584;2022-10-16T03:32:59;14.00;99.90
22974;DHT22;11653;50.848;4.584;2022-10-16T03:35:24;14.00;99.90
22974;DHT22;11653;50.848;4.584;2022-10-16T03:37:50;14.10;99.90
22974;DHT22;11653;50.848;4.584;2022-10-16T03:40:16;14.00;99.90
22974;DHT22;11653;50.848;4.584;2022-10-16T03:42:43;14.00;99.90
22974;DHT22;11653;50.848;4.584;2022-10-16T03:45:09;14.00;99.90
22974;DHT22;11653;50.848;4.584;2022-10-16T03:47:35;14.00;99.90
22974;DHT22;11653;50.848;4.584;2022-10-16T03:50:01;14.00;99.90
22974;DHT22;11653;50.848;4.584;2022-10-16T03:52:27;14.00;99.90
22974;DHT22;11653;50.848;4.584;2022-10-16T03:54:53;14.10;99.90
22974;DHT22;11653;50.848;4.584;2022-10-16T03:57:19;14.10;99.90
22974;DHT22;11653;50.848;4.584;2022-10-16T03:59:46;14.00;99.90
22974;DHT22;11653;50.848;4.584;2022-10-16T04:02:11;14.10;99.90
22974;DHT22;11653;50.848;4.584;2022-10-16T04:04:37;14.00;99.90
22974;DHT22;11653;50.848;4.584;2022-10-16T04:07:03;14.10;99.90
22974;DHT22;11653;50.848;4.584;2022-10-16T04:09:29;14.00;99.90
22974;DHT22;11653;50.848;4.584;2022-10-16T04:11:54;14.10;99.90
22974;DHT22;11653;50.848;4.584;2022-10-16T04:14:20;14.10;99.90
22974;DHT22;11653;50.848;4.584;2022-10-16T04:16:46;14.10;99.90
22974;DHT22;11653;50.848;4.584;2022-10-16T04:19:11;14.10;99.90
22974;DHT22;11653;50.848;4.584;2022-10-16T04:21:37;14.10;99.90
22974;DHT22;11653;50.848;4.584;2022-10-16T04:24:03;14.10;99.90
22974;DHT22;11653;50.848;4.584;2022-10-16T04:26:29;14.20;99.90
22974;DHT22;11653;50.848;4.584;2022-10-16T04:28:55;14.20;99.90
22974;DHT22;11653;50.848;4.584;2022-10-16T04:31:21;14.30;99.90
22974;DHT22;11653;50.848;4.584;2022-10-16T04:33:47;14.20;99.90
22974;DHT22;11653;50.848;4.584;2022-10-16T04:36:13;14.20;99.90
22974;DHT22;11653;50.848;4.584;2022-10-16T04:38:39;14.20;99.90
22974;DHT22;11653;50.848;4.584;2022-10-16T04:41:06;14.20;99.90
22974;DHT22;11653;50.848;4.584;2022-10-16T04:43:32;14.20;99.90
22974;DHT22;11653;50.848;4.584;2022-10-16T04:45:58;14.20;99.90
22974;DHT22;11653;50.848;4.584;2022-10-16T04:48:24;14.20;99.90
22974;DHT22;11653;50.848;4.584;2022-10-16T04:50:50;14.20;99.90
22974;DHT22;11653;50.848;4.584;2022-10-16T04:53:15;14.30;99.90
22974;DHT22;11653;50.848;4.584;2022-10-16T04:55:41;14.20;99.90
22974;DHT22;11653;50.848;4.584;2022-10-16T04:58:07;14.20;99.90
22974;DHT22;11653;50.848;4.584;2022-10-16T05:00:34;14.10;99.90
22974;DHT22;11653;50.848;4.584;2022-10-16T05:02:59;14.10;99.90
22974;DHT22;11653;50.848;4.584;2022-10-16T05:05:27;14.10;99.90
22974;DHT22;11653;50.848;4.584;2022-10-16T05:07:53;14.10;99.90
22974;DHT22;11653;50.848;4.584;2022-10-16T05:10:19;14.10;99.90
22974;DHT22;11653;50.848;4.584;2022-10-16T05:12:45;14.10;99.90
22974;DHT22;11653;50.848;4.584;2022-10-16T05:15:11;14.10;99.90
22974;DHT22;11653;50.848;4.584;2022-10-16T05:17:36;14.10;99.90
22974;DHT22;11653;50.848;4.584;2022-10-16T05:20:03;14.10;99.90
22974;DHT22;11653;50.848;4.584;2022-10-16T05:22:28;14.00;99.90
22974;DHT22;11653;50.848;4.584;2022-10-16T05:24:54;14.10;99.90
22974;DHT22;11653;50.848;4.584;2022-10-16T05:27:20;14.20;99.90
22974;DHT22;11653;50.848;4.584;2022-10-16T05:29:47;14.10;99.90
22974;DHT22;11653;50.848;4.584;2022-10-16T05:32:17;14.10;99.90
22974;DHT22;11653;50.848;4.584;2022-10-16T05:34:43;14.20;99.90
22974;DHT22;11653;50.848;4.584;2022-10-16T05:37:09;14.10;99.90
22974;DHT22;11653;50.848;4.584;2022-10-16T05:39:37;14.10;99.90
22974;DHT22;11653;50.848;4.584;2022-10-16T05:42:03;14.00;99.90
22974;DHT22;11653;50.848;4.584;2022-10-16T05:44:29;14.00;99.90
22974;DHT22;11653;50.848;4.584;2022-10-16T05:46:54;14.00;99.90
22974;DHT22;11653;50.848;4.584;2022-10-16T05:49:20;13.90;99.90
22974;DHT22;11653;50.848;4.584;2022-10-16T05:51:46;14.00;99.90
22974;DHT22;11653;50.848;4.584;2022-10-16T05:54:11;13.90;99.90
22974;DHT22;11653;50.848;4.584;2022-10-16T05:56:37;13.90;99.90
22974;DHT22;11653;50.848;4.584;2022-10-16T05:59:05;13.90;99.90
22974;DHT22;11653;50.848;4.584;2022-10-16T06:01:31;13.80;99.90
22974;DHT22;11653;50.848;4.584;2022-10-16T06:03:58;13.80;99.90
22974;DHT22;11653;50.848;4.584;2022-10-16T06:06:25;13.80;99.90
22974;DHT22;11653;50.848;4.584;2022-10-16T06:08:52;13.90;99.90
22974;DHT22;11653;50.848;4.584;2022-10-16T06:11:26;13.90;99.90
22974;DHT22;11653;50.848;4.584;2022-10-16T06:13:55;13.90;99.90
22974;DHT22;11653;50.848;4.584;2022-10-16T06:16:25;14.00;99.90
22974;DHT22;11653;50.848;4.584;2022-10-16T06:18:52;14.10;99.90
22974;DHT22;11653;50.848;4.584;2022-10-16T06:21:25;14.00;99.90
22974;DHT22;11653;50.848;4.584;2022-10-16T06:23:51;14.00;99.90
22974;DHT22;11653;50.848;4.584;2022-10-16T06:26:20;14.00;99.90
22974;DHT22;11653;50.848;4.584;2022-10-16T06:28:46;14.00;99.90
22974;DHT22;11653;50.848;4.584;2022-10-16T06:31:13;14.00;99.90
22974;DHT22;11653;50.848;4.584;2022-10-16T06:33:39;14.00;99.90
22974;DHT22;11653;50.848;4.584;2022-10-16T06:36:10;14.10;99.90
22974;DHT22;11653;50.848;4.584;2022-10-16T06:38:37;14.00;99.90
22974;DHT22;11653;50.848;4.584;2022-10-16T06:41:03;14.00;99.90
22974;DHT22;11653;50.848;4.584;2022-10-16T06:43:29;14.00;99.90
22974;DHT22;11653;50.848;4.584;2022-10-16T06:45:59;14.00;99.90
22974;DHT22;11653;50.848;4.584;2022-10-16T06:48:25;14.00;99.90
22974;DHT22;11653;50.848;4.584;2022-10-16T06:51:10;14.00;99.90
22974;DHT22;11653;50.848;4.584;2022-10-16T06:53:38;14.20;99.90
22974;DHT22;11653;50.848;4.584;2022-10-16T06:58:41;15.00;99.90
22974;DHT22;11653;50.848;4.584;2022-10-16T07:01:08;15.60;99.90
22974;DHT22;11653;50.848;4.584;2022-10-16T07:03:36;16.50;99.90
22974;DHT22;11653;50.848;4.584;2022-10-16T07:06:04;17.40;99.90
22974;DHT22;11653;50.848;4.584;2022-10-16T07:08:34;18.40;99.90
22974;DHT22;11653;50.848;4.584;2022-10-16T07:11:02;19.40;99.90
22974;DHT22;11653;50.848;4.584;2022-10-16T07:13:28;20.40;99.90
22974;DHT22;11653;50.848;4.584;2022-10-16T07:15:54;21.40;99.90
22974;DHT22;11653;50.848;4.584;2022-10-16T07:18:19;22.20;99.90
22974;DHT22;11653;50.848;4.584;2022-10-16T07:20:45;22.80;99.90
22974;DHT22;11653;50.848;4.584;2022-10-16T07:23:11;23.60;99.90
22974;DHT22;11653;50.848;4.584;2022-10-16T07:25:36;24.40;99.90
22974;DHT22;11653;50.848;4.584;2022-10-16T07:28:02;25.00;99.90
22974;DHT22;11653;50.848;4.584;2022-10-16T07:30:28;25.80;98.90
22974;DHT22;11653;50.848;4.584;2022-10-16T07:32:53;26.30;97.40
22974;DHT22;11653;50.848;4.584;2022-10-16T07:35:19;26.70;95.50
22974;DHT22;11653;50.848;4.584;2022-10-16T07:37:48;26.90;94.10
22974;DHT22;11653;50.848;4.584;2022-10-16T07:40:13;26.90;93.60
22974;DHT22;11653;50.848;4.584;2022-10-16T07:42:39;26.60;93.50
22974;DHT22;11653;50.848;4.584;2022-10-16T07:45:05;25.90;94.40
22974;DHT22;11653;50.848;4.584;2022-10-16T07:47:31;25.60;95.60
22974;DHT22;11653;50.848;4.584;2022-10-16T07:49:57;25.90;95.80
22974;DHT22;11653;50.848;4.584;2022-10-16T07:52:22;26.10;94.50
22974;DHT22;11653;50.848;4.584;2022-10-16T07:54:48;26.70;94.30
22974;DHT22;11653;50.848;4.584;2022-10-16T07:57:14;27.20;92.40
22974;DHT22;11653;50.848;4.584;2022-10-16T07:59:45;27.40;91.70
22974;DHT22;11653;50.848;4.584;2022-10-16T08:02:11;27.50;91.50
22974;DHT22;11653;50.848;4.584;2022-10-16T08:04:37;27.60;91.50
22974;DHT22;11653;50.848;4.584;2022-10-16T08:07:03;27.80;90.50
22974;DHT22;11653;50.848;4.584;2022-10-16T08:09:28;27.80;90.10
22974;DHT22;11653;50.848;4.584;2022-10-16T08:11:54;27.70;90.30
22974;DHT22;11653;50.848;4.584;2022-10-16T08:14:20;28.00;89.40
22974;DHT22;11653;50.848;4.584;2022-10-16T08:16:46;28.00;89.60
22974;DHT22;11653;50.848;4.584;2022-10-16T08:19:11;28.20;88.90
22974;DHT22;11653;50.848;4.584;2022-10-16T08:21:37;28.40;87.30
22974;DHT22;11653;50.848;4.584;2022-10-16T08:24:03;28.70;87.80
22974;DHT22;11653;50.848;4.584;2022-10-16T08:26:31;28.60;86.10
22974;DHT22;11653;50.848;4.584;2022-10-16T08:28:56;28.70;85.30
22974;DHT22;11653;50.848;4.584;2022-10-16T08:31:23;28.40;84.90
22974;DHT22;11653;50.848;4.584;2022-10-16T08:33:51;28.40;85.90
22974;DHT22;11653;50.848;4.584;2022-10-16T08:36:17;27.90;85.00
22974;DHT22;11653;50.848;4.584;2022-10-16T08:38:43;27.60;87.50
22974;DHT22;11653;50.848;4.584;2022-10-16T08:41:45;27.60;86.90
22974;DHT22;11653;50.848;4.584;2022-10-16T08:47:18;26.40;90.10
22974;DHT22;11653;50.848;4.584;2022-10-16T08:50:09;26.30;90.70
22974;DHT22;11653;50.848;4.584;2022-10-16T08:52:40;26.50;90.50
22974;DHT22;11653;50.848;4.584;2022-10-16T08:55:27;27.00;90.30
22974;DHT22;11653;50.848;4.584;2022-10-16T08:57:55;27.70;88.00
22974;DHT22;11653;50.848;4.584;2022-10-16T09:00:24;28.80;85.10
22974;DHT22;11653;50.848;4.584;2022-10-16T09:06:06;30.30;79.50
22974;DHT22;11653;50.848;4.584;2022-10-16T09:11:20;31.00;73.90
22974;DHT22;11653;50.848;4.584;2022-10-16T09:13:54;29.90;75.20
22974;DHT22;11653;50.848;4.584;2022-10-16T09:16:30;28.80;77.60
22974;DHT22;11653;50.848;4.584;2022-10-16T09:21:36;27.90;80.90
22974;DHT22;11653;50.848;4.584;2022-10-16T09:24:16;27.40;83.10
22974;DHT22;11653;50.848;4.584;2022-10-16T09:26:43;26.80;84.80
22974;DHT22;11653;50.848;4.584;2022-10-16T09:29:16;26.10;87.90
22974;DHT22;11653;50.848;4.584;2022-10-16T09:32:35;25.10;90.00
22974;DHT22;11653;50.848;4.584;2022-10-16T09:35:04;24.40;91.80
22974;DHT22;11653;50.848;4.584;2022-10-16T09:37:43;23.30;93.50
22974;DHT22;11653;50.848;4.584;2022-10-16T09:46:27;24.20;95.20
22974;DHT22;11653;50.848;4.584;2022-10-16T09:49:25;25.00;93.00
22974;DHT22;11653;50.848;4.584;2022-10-16T09:52:02;25.90;91.50
22974;DHT22;11653;50.848;4.584;2022-10-16T09:54:29;26.80;89.20
22974;DHT22;11653;50.848;4.584;2022-10-16T09:57:05;27.20;86.20
22974;DHT22;11653;50.848;4.584;2022-10-16T09:59:33;28.10;83.00
22974;DHT22;11653;50.848;4.584;2022-10-16T10:02:10;28.70;79.60
22974;DHT22;11653;50.848;4.584;2022-10-16T10:05:20;29.30;79.80
22974;DHT22;11653;50.848;4.584;2022-10-16T10:07:56;29.80;77.00
22974;DHT22;11653;50.848;4.584;2022-10-16T10:12:50;29.70;74.00
22974;DHT22;11653;50.848;4.584;2022-10-16T10:15:16;29.80;76.90
22974;DHT22;11653;50.848;4.584;2022-10-16T10:17:57;29.90;73.90
22974;DHT22;11653;50.848;4.584;2022-10-16T10:22:52;30.80;73.70
22974;DHT22;11653;50.848;4.584;2022-10-16T10:25:45;31.00;72.60
22974;DHT22;11653;50.848;4.584;2022-10-16T10:32:06;30.40;71.90
22974;DHT22;11653;50.848;4.584;2022-10-16T10:40:01;31.70;70.40
22974;DHT22;11653;50.848;4.584;2022-10-16T10:50:49;32.20;63.20
22974;DHT22;11653;50.848;4.584;2022-10-16T10:55:51;29.70;69.10
22974;DHT22;11653;50.848;4.584;2022-10-16T11:01:18;29.10;72.20
22974;DHT22;11653;50.848;4.584;2022-10-16T11:06:44;29.60;69.40
22974;DHT22;11653;50.848;4.584;2022-10-16T11:09:53;29.10;70.70
22974;DHT22;11653;50.848;4.584;2022-10-16T11:12:07;28.70;71.50
22974;DHT22;11653;50.848;4.584;2022-10-16T11:17:10;27.70;73.50
22974;DHT22;11653;50.848;4.584;2022-10-16T11:22:22;26.60;77.70
22974;DHT22;11653;50.848;4.584;2022-10-16T11:27:58;26.60;79.90
22974;DHT22;11653;50.848;4.584;2022-10-16T11:30:43;27.70;77.50
22974;DHT22;11653;50.848;4.584;2022-10-16T11:36:11;28.80;70.80
22974;DHT22;11653;50.848;4.584;2022-10-16T11:39:02;28.50;71.30
22974;DHT22;11653;50.848;4.584;2022-10-16T11:41:41;28.30;72.10
22974;DHT22;11653;50.848;4.584;2022-10-16T11:44:44;28.50;73.30
22974;DHT22;11653;50.848;4.584;2022-10-16T11:47:34;28.70;72.70
22974;DHT22;11653;50.848;4.584;2022-10-16T11:53:46;29.00;70.80
22974;DHT22;11653;50.848;4.584;2022-10-16T11:56:35;28.40;73.10
22974;DHT22;11653;50.848;4.584;2022-10-16T11:59:10;27.80;73.40
22974;DHT22;11653;50.848;4.584;2022-10-16T12:04:17;26.60;77.30
22974;DHT22;11653;50.848;4.584;2022-10-16T12:10:25;25.50;81.20
22974;DHT22;11653;50.848;4.584;2022-10-16T12:12:52;24.50;85.40
22974;DHT22;11653;50.848;4.584;2022-10-16T12:15:19;23.90;88.50
22974;DHT22;11653;50.848;4.584;2022-10-16T12:17:46;23.80;89.90
22974;DHT22;11653;50.848;4.584;2022-10-16T12:22:42;23.80;90.50
22974;DHT22;11653;50.848;4.584;2022-10-16T12:28:19;23.80;90.30
22974;DHT22;11653;50.848;4.584;2022-10-16T12:37:35;23.30;91.10
22974;DHT22;11653;50.848;4.584;2022-10-16T12:40:24;23.20;91.80
22974;DHT22;11653;50.848;4.584;2022-10-16T12:42:50;23.30;92.70
22974;DHT22;11653;50.848;4.584;2022-10-16T12:47:55;23.60;91.30
22974;DHT22;11653;50.848;4.584;2022-10-16T12:50:37;23.50;91.20
22974;DHT22;11653;50.848;4.584;2022-10-16T12:53:16;23.30;91.00
22974;DHT22;11653;50.848;4.584;2022-10-16T12:56:10;23.20;90.90
22974;DHT22;11653;50.848;4.584;2022-10-16T13:01:21;23.10;91.70
22974;DHT22;11653;50.848;4.584;2022-10-16T13:09:39;22.80;91.90
22974;DHT22;11653;50.848;4.584;2022-10-16T13:15:16;22.60;92.70
22974;DHT22;11653;50.848;4.584;2022-10-16T13:20:58;22.70;94.60
22974;DHT22;11653;50.848;4.584;2022-10-16T13:26:19;23.20;93.70
22974;DHT22;11653;50.848;4.584;2022-10-16T13:28:47;23.20;92.70
22974;DHT22;11653;50.848;4.584;2022-10-16T13:31:20;23.00;93.10
22974;DHT22;11653;50.848;4.584;2022-10-16T13:33:49;22.60;92.90
22974;DHT22;11653;50.848;4.584;2022-10-16T13:36:45;22.40;93.70
22974;DHT22;11653;50.848;4.584;2022-10-16T13:39:26;22.60;94.00
22974;DHT22;11653;50.848;4.584;2022-10-16T13:44:27;22.70;94.40
22974;DHT22;11653;50.848;4.584;2022-10-16T13:47:00;22.80;94.30
22974;DHT22;11653;50.848;4.584;2022-10-16T13:49:26;23.10;93.70
22974;DHT22;11653;50.848;4.584;2022-10-16T13:51:57;23.20;92.70
22974;DHT22;11653;50.848;4.584;2022-10-16T13:54:26;23.20;93.00
22974;DHT22;11653;50.848;4.584;2022-10-16T13:57:04;23.00;92.00
22974;DHT22;11653;50.848;4.584;2022-10-16T13:59:34;22.80;92.40
22974;DHT22;11653;50.848;4.584;2022-10-16T14:02:33;22.80;93.00
22974;DHT22;11653;50.848;4.584;2022-10-16T14:08:10;22.60;93.50
22974;DHT22;11653;50.848;4.584;2022-10-16T14:10:40;22.40;94.20
22974;DHT22;11653;50.848;4.584;2022-10-16T14:13:07;22.40;94.90
22974;DHT22;11653;50.848;4.584;2022-10-16T14:15:35;22.50;94.50
22974;DHT22;11653;50.848;4.584;2022-10-16T14:18:02;22.50;95.00
22974;DHT22;11653;50.848;4.584;2022-10-16T14:20:33;22.30;95.10
22974;DHT22;11653;50.848;4.584;2022-10-16T14:23:23;22.30;95.30
22974;DHT22;11653;50.848;4.584;2022-10-16T14:25:53;22.20;96.30
22974;DHT22;11653;50.848;4.584;2022-10-16T14:28:23;22.10;96.50
22974;DHT22;11653;50.848;4.584;2022-10-16T14:30:59;22.20;96.80
22974;DHT22;11653;50.848;4.584;2022-10-16T14:33:32;22.20;96.80
22974;DHT22;11653;50.848;4.584;2022-10-16T14:36:13;22.30;97.10
22974;DHT22;11653;50.848;4.584;2022-10-16T14:38:41;22.30;96.60
22974;DHT22;11653;50.848;4.584;2022-10-16T14:41:07;22.20;96.50
22974;DHT22;11653;50.848;4.584;2022-10-16T14:43:39;22.30;96.80
22974;DHT22;11653;50.848;4.584;2022-10-16T14:46:13;22.30;96.30
22974;DHT22;11653;50.848;4.584;2022-10-16T14:48:44;22.10;96.50
22974;DHT22;11653;50.848;4.584;2022-10-16T14:51:15;22.00;96.20
22974;DHT22;11653;50.848;4.584;2022-10-16T14:53:41;21.90;96.60
22974;DHT22;11653;50.848;4.584;2022-10-16T14:56:41;21.80;96.90
22974;DHT22;11653;50.848;4.584;2022-10-16T14:59:00;21.60;97.70
22974;DHT22;11653;50.848;4.584;2022-10-16T15:01:26;21.60;98.30
22974;DHT22;11653;50.848;4.584;2022-10-16T15:03:52;21.60;98.80
22974;DHT22;11653;50.848;4.584;2022-10-16T15:06:19;21.40;98.60
22974;DHT22;11653;50.848;4.584;2022-10-16T15:08:45;21.40;99.80
22974;DHT22;11653;50.848;4.584;2022-10-16T15:11:16;21.20;99.60
22974;DHT22;11653;50.848;4.584;2022-10-16T15:13:42;21.20;99.90
22974;DHT22;11653;50.848;4.584;2022-10-16T15:16:13;21.30;99.90
22974;DHT22;11653;50.848;4.584;2022-10-16T15:18:39;21.30;99.90
22974;DHT22;11653;50.848;4.584;2022-10-16T15:21:05;21.30;99.90
22974;DHT22;11653;50.848;4.584;2022-10-16T15:23:30;21.20;99.90
22974;DHT22;11653;50.848;4.584;2022-10-16T15:25:56;21.20;99.90
22974;DHT22;11653;50.848;4.584;2022-10-16T15:28:23;21.20;99.90
22974;DHT22;11653;50.848;4.584;2022-10-16T15:30:51;21.20;99.90
22974;DHT22;11653;50.848;4.584;2022-10-16T15:33:20;21.10;99.90
22974;DHT22;11653;50.848;4.584;2022-10-16T15:35:47;21.10;99.90
22974;DHT22;11653;50.848;4.584;2022-10-16T15:38:14;21.10;99.90
22974;DHT22;11653;50.848;4.584;2022-10-16T15:40:40;21.10;99.90
22974;DHT22;11653;50.848;4.584;2022-10-16T15:43:07;20.90;99.90
22974;DHT22;11653;50.848;4.584;2022-10-16T15:45:33;20.90;99.90
22974;DHT22;11653;50.848;4.584;2022-10-16T15:47:59;20.80;99.90
22974;DHT22;11653;50.848;4.584;2022-10-16T15:50:24;20.80;99.90
22974;DHT22;11653;50.848;4.584;2022-10-16T15:52:50;20.70;99.90
22974;DHT22;11653;50.848;4.584;2022-10-16T15:55:16;20.60;99.90
22974;DHT22;11653;50.848;4.584;2022-10-16T15:57:44;20.50;99.90
22974;DHT22;11653;50.848;4.584;2022-10-16T16:00:13;20.40;99.90
22974;DHT22;11653;50.848;4.584;2022-10-16T16:02:41;20.40;99.90
22974;DHT22;11653;50.848;4.584;2022-10-16T16:05:07;20.40;99.90
22974;DHT22;11653;50.848;4.584;2022-10-16T16:07:34;20.30;99.90
22974;DHT22;11653;50.848;4.584;2022-10-16T16:10:00;20.30;99.90
22974;DHT22;11653;50.848;4.584;2022-10-16T16:12:25;20.20;99.90
22974;DHT22;11653;50.848;4.584;2022-10-16T16:14:51;20.10;99.90
22974;DHT22;11653;50.848;4.584;2022-10-16T16:17:17;20.10;99.90
22974;DHT22;11653;50.848;4.584;2022-10-16T16:19:43;20.00;99.90
22974;DHT22;11653;50.848;4.584;2022-10-16T16:22:08;20.00;99.90
22974;DHT22;11653;50.848;4.584;2022-10-16T16:24:35;19.90;99.90
22974;DHT22;11653;50.848;4.584;2022-10-16T16:27:01;19.70;99.90
22974;DHT22;11653;50.848;4.584;2022-10-16T16:29:27;19.70;99.90
22974;DHT22;11653;50.848;4.584;2022-10-16T16:31:53;19.50;99.90
22974;DHT22;11653;50.848;4.584;2022-10-16T16:34:24;19.50;99.90
22974;DHT22;11653;50.848;4.584;2022-10-16T16:36:50;19.50;99.90
22974;DHT22;11653;50.848;4.584;2022-10-16T16:39:16;19.40;99.90
22974;DHT22;11653;50.848;4.584;2022-10-16T16:41:41;19.30;99.90
22974;DHT22;11653;50.848;4.584;2022-10-16T16:44:09;19.30;99.90
22974;DHT22;11653;50.848;4.584;2022-10-16T16:46:36;19.30;99.90
22974;DHT22;11653;50.848;4.584;2022-10-16T16:49:02;19.20;99.90
22974;DHT22;11653;50.848;4.584;2022-10-16T16:51:28;19.20;99.90
22974;DHT22;11653;50.848;4.584;2022-10-16T16:53:55;19.10;99.90
22974;DHT22;11653;50.848;4.584;2022-10-16T16:56:21;19.00;99.90
22974;DHT22;11653;50.848;4.584;2022-10-16T16:58:49;19.00;99.90
22974;DHT22;11653;50.848;4.584;2022-10-16T17:01:15;19.00;99.90
22974;DHT22;11653;50.848;4.584;2022-10-16T17:03:43;19.00;99.90
22974;DHT22;11653;50.848;4.584;2022-10-16T17:06:14;18.90;99.90
22974;DHT22;11653;50.848;4.584;2022-10-16T17:08:41;19.00;99.90
22974;DHT22;11653;50.848;4.584;2022-10-16T17:11:12;19.10;99.90
22974;DHT22;11653;50.848;4.584;2022-10-16T17:13:38;19.20;99.90
22974;DHT22;11653;50.848;4.584;2022-10-16T17:16:05;19.00;99.90
22974;DHT22;11653;50.848;4.584;2022-10-16T17:18:32;18.90;99.90
22974;DHT22;11653;50.848;4.584;2022-10-16T17:21:03;18.90;99.90
22974;DHT22;11653;50.848;4.584;2022-10-16T17:23:30;18.80;99.90
22974;DHT22;11653;50.848;4.584;2022-10-16T17:25:56;18.80;99.90
22974;DHT22;11653;50.848;4.584;2022-10-16T17:28:21;18.80;99.90
22974;DHT22;11653;50.848;4.584;2022-10-16T17:30:47;18.80;99.90
22974;DHT22;11653;50.848;4.584;2022-10-16T17:33:13;18.80;99.90
22974;DHT22;11653;50.848;4.584;2022-10-16T17:35:44;18.80;99.90
22974;DHT22;11653;50.848;4.584;2022-10-16T17:38:11;18.70;99.90
22974;DHT22;11653;50.848;4.584;2022-10-16T17:40:38;18.60;99.90
22974;DHT22;11653;50.848;4.584;2022-10-16T17:43:05;18.60;99.90
22974;DHT22;11653;50.848;4.584;2022-10-16T17:45:31;18.50;99.90
22974;DHT22;11653;50.848;4.584;2022-10-16T17:47:59;18.50;99.90
22974;DHT22;11653;50.848;4.584;2022-10-16T17:50:25;18.50;99.90